Time;durP1;ratioP1;P1;durP2;ratioP2;P2;SDS_P1;SDS_P2;PMS_P1;PMS_P2;Temp;Humidity;BMP_temperature;BMP_pressure;BME280_temperature;BME280_humidity;BME280_pressure;Samples;Min_cycle;Max_cycle;Signal;HPM_P1;HPM_P2
2021/05/03 00:00:07;;;;;;;7.00;3.65;;;7.00;91.10;;;;;;5047126;28;20060;-78
2021/05/03 00:02:34;;;;;;;7.90;4.68;;;7.00;91.70;;;;;;5036060;28;20029;-77
2021/05/03 00:05:00;;;;;;;6.65;4.13;;;6.90;92.30;;;;;;5043849;28;20028;-81
2021/05/03 00:07:26;;;;;;;6.25;3.85;;;6.90;92.90;;;;;;5047857;28;20037;-79
2021/05/03 00:09:51;;;;;;;6.20;3.53;;;6.80;93.10;;;;;;5030095;28;20097;-78
2021/05/03 00:12:17;;;;;;;8.32;4.00;;;6.90;93.10;;;;;;5046508;28;20052;-79
2021/05/03 00:14:43;;;;;;;6.00;3.85;;;6.80;93.70;;;;;;5035276;28;20096;-77
2021/05/03 00:17:08;;;;;;;8.50;4.05;;;7.40;94.00;;;;;;5052664;28;20121;-80
2021/05/03 00:19:34;;;;;;;5.32;3.78;;;6.80;94.00;;;;;;5047365;28;20020;-81
2021/05/03 00:22:03;;;;;;;13.63;5.93;;;6.80;94.20;;;;;;5023675;28;20040;-81
2021/05/03 00:24:28;;;;;;;9.20;4.03;;;6.70;94.60;;;;;;5052459;28;20048;-78
2021/05/03 00:26:54;;;;;;;7.32;4.43;;;6.80;95.00;;;;;;5036807;28;20033;-75
2021/05/03 00:29:20;;;;;;;6.07;4.10;;;6.70;94.90;;;;;;5032803;28;20037;-82
2021/05/03 00:31:46;;;;;;;8.10;4.40;;;6.60;95.30;;;;;;5050319;28;20037;-77
2021/05/03 00:34:13;;;;;;;8.77;5.18;;;6.70;95.50;;;;;;5052653;28;20068;-79
2021/05/03 00:36:39;;;;;;;9.00;4.50;;;6.60;95.80;;;;;;5030654;28;20029;-78
2021/05/03 00:39:05;;;;;;;6.70;4.00;;;6.60;95.80;;;;;;5050716;28;20037;-80
2021/05/03 00:41:30;;;;;;;7.18;4.30;;;6.50;96.00;;;;;;5040409;28;20036;-78
2021/05/03 00:43:56;;;;;;;6.20;4.28;;;;;;;;;;5039976;28;20033;-79
2021/05/03 00:46:23;;;;;;;7.68;4.57;;;6.40;96.20;;;;;;5026257;28;20068;-78
2021/05/03 00:48:50;;;;;;;6.72;4.20;;;6.20;97.10;;;;;;5046293;28;20072;-78
2021/05/03 00:51:17;;;;;;;6.97;4.55;;;6.00;97.40;;;;;;5029998;28;20029;-76
2021/05/03 00:53:44;;;;;;;7.10;4.35;;;6.00;98.10;;;;;;5031400;28;20049;-76
2021/05/03 00:56:10;;;;;;;8.18;4.95;;;6.00;97.90;;;;;;5019740;28;20060;-77
2021/05/03 00:58:36;;;;;;;9.30;5.18;;;6.00;98.00;;;;;;5018614;28;20067;-79
2021/05/03 01:01:03;;;;;;;7.95;4.60;;;6.00;97.80;;;;;;5035508;28;20049;-76
2021/05/03 01:03:29;;;;;;;11.23;5.15;;;6.00;98.00;;;;;;5026912;28;20025;-80
2021/05/03 01:05:55;;;;;;;7.30;4.90;;;5.90;98.40;;;;;;5027413;28;20035;-78
2021/05/03 01:08:21;;;;;;;7.95;4.50;;;;;;;;;;5047639;28;20047;-79
2021/05/03 01:10:47;;;;;;;7.88;5.00;;;;;;;;;;5053508;28;20033;-77
2021/05/03 01:13:13;;;;;;;7.07;4.65;;;6.00;98.50;;;;;;5055477;28;20029;-79
2021/05/03 01:15:39;;;;;;;6.55;4.80;;;6.00;98.60;;;;;;5032972;28;20035;-80
2021/05/03 01:18:05;;;;;;;10.00;5.10;;;6.00;98.70;;;;;;5027960;28;20037;-78
2021/05/03 01:20:35;;;;;;;8.32;4.90;;;6.00;98.70;;;;;;5055134;28;20028;-78
2021/05/03 01:23:02;;;;;;;7.23;4.80;;;6.00;98.60;;;;;;5047103;28;20088;-79
2021/05/03 01:25:31;;;;;;;8.32;4.70;;;6.00;98.50;;;;;;5030143;28;20285;-80
2021/05/03 01:28:04;;;;;;;6.28;4.38;;;6.00;98.20;;;;;;5033139;28;20025;-77
2021/05/03 01:30:31;;;;;;;9.07;4.90;;;6.00;98.30;;;;;;5031961;28;20087;-78
2021/05/03 01:32:57;;;;;;;7.50;4.45;;;5.90;98.70;;;;;;5028058;28;20060;-79
2021/05/03 01:35:23;;;;;;;8.50;5.20;;;5.80;98.70;;;;;;5023997;28;20558;-77
2021/05/03 01:37:57;;;;;;;9.25;5.68;;;5.80;98.80;;;;;;5049053;28;20039;-80
2021/05/03 01:40:24;;;;;;;9.05;5.30;;;5.60;99.30;;;;;;5047963;28;20637;-78
2021/05/03 01:42:53;;;;;;;7.40;4.88;;;5.50;99.60;;;;;;5036173;28;20084;-78
2021/05/03 01:45:23;;;;;;;7.53;5.20;;;5.40;99.90;;;;;;5048467;28;20056;-79
2021/05/03 01:47:50;;;;;;;8.63;5.47;;;5.40;99.60;;;;;;5031603;28;20057;-80
2021/05/03 01:50:18;;;;;;;10.25;5.60;;;5.20;99.90;;;;;;5046062;28;20040;-77
2021/05/03 01:52:44;;;;;;;9.40;5.53;;;5.20;99.90;;;;;;5023606;28;20029;-79
2021/05/03 01:55:11;;;;;;;9.10;5.13;;;5.60;99.90;;;;;;5048981;28;20029;-82
2021/05/03 01:57:37;;;;;;;7.50;5.40;;;5.30;99.90;;;;;;5032036;28;20151;-80
2021/05/03 02:00:04;;;;;;;9.13;5.75;;;5.20;99.90;;;;;;5024110;28;20113;-78
2021/05/03 02:02:30;;;;;;;9.05;5.35;;;5.20;99.90;;;;;;5026129;28;20151;-79
2021/05/03 02:04:56;;;;;;;10.07;5.63;;;5.20;99.90;;;;;;5035074;28;20111;-79
2021/05/03 02:07:21;;;;;;;9.52;5.28;;;5.10;99.90;;;;;;5055206;28;20084;-78
2021/05/03 02:09:47;;;;;;;8.52;5.72;;;;;;;;;;5037175;28;20064;-79
2021/05/03 02:12:13;;;;;;;8.35;5.50;;;5.30;99.90;;;;;;5052123;28;20040;-76
2021/05/03 02:14:43;;;;;;;8.48;5.50;;;5.30;99.90;;;;;;5037177;28;20434;-79
2021/05/03 02:17:10;;;;;;;8.57;5.15;;;5.20;99.90;;;;;;5026246;28;20116;-80
2021/05/03 02:19:35;;;;;;;8.50;5.95;;;5.20;99.90;;;;;;5029419;28;20492;-79
2021/05/03 02:22:02;;;;;;;8.45;6.18;;;;;;;;;;5034248;28;20071;-76
2021/05/03 02:24:27;;;;;;;8.68;5.45;;;5.20;99.90;;;;;;5032856;28;21205;-77
2021/05/03 02:26:53;;;;;;;8.05;5.60;;;5.10;99.90;;;;;;5038099;28;20037;-78
2021/05/03 02:29:19;;;;;;;7.13;5.47;;;5.10;99.90;;;;;;5048779;28;20613;-76
2021/05/03 02:31:45;;;;;;;7.82;5.15;;;5.10;99.90;;;;;;5047330;28;20033;-78
2021/05/03 02:34:10;;;;;;;9.23;5.22;;;5.00;99.90;;;;;;5050752;28;20099;-76
2021/05/03 02:36:36;;;;;;;7.13;5.13;;;5.00;99.90;;;;;;5045020;28;20029;-76
2021/05/03 02:39:02;;;;;;;8.02;4.82;;;4.80;99.90;;;;;;5031486;28;20025;-80
2021/05/03 02:41:30;;;;;;;10.07;5.30;;;4.80;99.90;;;;;;5038177;28;20029;-79
2021/05/03 02:43:56;;;;;;;9.25;5.82;;;;;;;;;;5031542;28;20037;-78
2021/05/03 02:46:22;;;;;;;9.00;5.63;;;4.80;99.90;;;;;;5033125;28;20029;-78
2021/05/03 02:48:47;;;;;;;10.90;6.30;;;4.70;99.90;;;;;;5053561;28;20580;-78
2021/05/03 02:51:13;;;;;;;7.88;5.70;;;4.70;99.90;;;;;;5032132;28;20021;-76
2021/05/03 02:53:39;;;;;;;7.45;5.70;;;4.70;99.90;;;;;;5037263;28;20096;-78
2021/05/03 02:56:05;;;;;;;10.32;5.97;;;4.70;99.90;;;;;;5036544;28;20746;-79
2021/05/03 02:58:30;;;;;;;9.32;6.03;;;4.60;99.90;;;;;;5048436;28;20064;-78
2021/05/03 03:00:58;;;;;;;13.32;6.40;;;4.60;99.90;;;;;;5047083;28;20375;-78
2021/05/03 03:03:24;;;;;;;10.55;6.55;;;4.60;99.90;;;;;;5060869;28;20025;-79
2021/05/03 03:05:50;;;;;;;9.85;6.07;;;4.70;99.90;;;;;;5039689;28;20078;-76
2021/05/03 03:08:16;;;;;;;8.80;6.07;;;;;;;;;;5031837;28;20499;-78
2021/05/03 03:10:41;;;;;;;8.50;6.10;;;4.70;99.90;;;;;;5033382;28;20559;-80
2021/05/03 03:13:07;;;;;;;9.60;6.10;;;4.60;99.90;;;;;;5024589;28;20031;-77
2021/05/03 03:15:36;;;;;;;10.65;6.38;;;4.50;99.90;;;;;;5029395;28;20024;-78
2021/05/03 03:18:04;;;;;;;9.15;5.80;;;4.50;99.90;;;;;;5050240;28;20029;-78
2021/05/03 03:20:29;;;;;;;9.85;5.80;;;4.40;99.90;;;;;;5050758;28;20033;-78
2021/05/03 03:22:55;;;;;;;9.77;6.68;;;4.40;99.90;;;;;;5032652;28;20060;-79
2021/05/03 03:25:22;;;;;;;9.43;6.40;;;4.40;99.90;;;;;;5047304;28;20119;-79
2021/05/03 03:27:48;;;;;;;12.73;7.38;;;;;;;;;;5046732;28;20037;-80
2021/05/03 03:30:17;;;;;;;9.65;6.35;;;4.30;99.90;;;;;;5033123;28;20092;-78
2021/05/03 03:32:47;;;;;;;10.35;7.10;;;4.30;99.90;;;;;;5039021;28;20028;-78
2021/05/03 03:35:16;;;;;;;10.55;7.43;;;4.20;99.90;;;;;;5032168;28;20036;-78
2021/05/03 03:37:43;;;;;;;11.73;7.53;;;4.40;99.90;;;;;;5042208;28;20029;-78
2021/05/03 03:40:11;;;;;;;12.05;6.80;;;4.40;99.90;;;;;;5033482;28;20033;-77
2021/05/03 03:42:36;;;;;;;9.75;6.82;;;4.40;99.90;;;;;;5031679;28;20052;-77
2021/05/03 03:45:04;;;;;;;9.38;6.60;;;7.30;99.90;;;;;;5033605;28;20021;-78
2021/05/03 03:47:31;;;;;;;11.63;7.30;;;4.50;99.90;;;;;;5033151;28;20483;-79
2021/05/03 03:49:56;;;;;;;12.27;7.53;;;4.50;99.90;;;;;;5048298;28;20040;-80
2021/05/03 03:52:24;;;;;;;12.07;6.82;;;4.50;99.90;;;;;;5023276;28;20033;-80
2021/05/03 03:54:49;;;;;;;13.32;7.60;;;4.50;99.90;;;;;;5051734;28;20025;-80
2021/05/03 03:57:15;;;;;;;12.65;7.15;;;4.40;99.90;;;;;;5035008;28;20068;-83
2021/05/03 03:59:43;;;;;;;12.80;7.78;;;4.50;99.90;;;;;;5046716;28;20017;-79
2021/05/03 04:02:09;;;;;;;13.50;7.20;;;;;;;;;;5036266;28;20021;-79
2021/05/03 04:04:39;;;;;;;12.45;8.23;;;4.30;99.90;;;;;;5050747;28;20029;-78
2021/05/03 04:12:19;;;;;;;11.90;7.35;;;4.20;99.90;;;;;;5047590;28;20124;-77
2021/05/03 04:25:36;;;;;;;11.85;7.78;;;4.00;99.90;;;;;;5050585;28;20024;-79
2021/05/03 04:28:02;;;;;;;13.23;8.45;;;4.10;99.90;;;;;;5049135;28;20080;-79
2021/05/03 04:30:28;;;;;;;13.13;7.60;;;4.10;99.90;;;;;;5051216;28;20029;-79
2021/05/03 04:32:54;;;;;;;12.35;8.63;;;4.00;99.90;;;;;;5047653;28;20017;-81
2021/05/03 04:35:20;;;;;;;15.25;8.75;;;;;;;;;;5031685;28;20025;-80
2021/05/03 04:37:46;;;;;;;12.98;7.97;;;4.10;99.90;;;;;;5051080;28;20034;-81
2021/05/03 04:40:12;;;;;;;13.55;8.32;;;4.00;99.90;;;;;;5042005;28;20037;-78
2021/05/03 04:42:37;;;;;;;13.27;8.57;;;1.20;99.90;;;;;;5033704;28;20132;-80
2021/05/03 04:45:04;;;;;;;14.52;8.77;;;4.00;99.90;;;;;;5033642;28;20025;-80
2021/05/03 04:47:30;;;;;;;17.13;9.55;;;4.00;99.90;;;;;;5031312;28;20021;-79
2021/05/03 04:49:58;;;;;;;15.52;8.57;;;3.90;99.90;;;;;;5048934;28;20032;-80
2021/05/03 04:52:24;;;;;;;16.15;8.90;;;3.90;99.90;;;;;;5028562;28;20447;-83
2021/05/03 04:54:49;;;;;;;19.58;9.13;;;6.00;99.90;;;;;;5030796;28;20024;-79
2021/05/03 04:57:15;;;;;;;15.88;9.13;;;4.00;99.90;;;;;;5028094;28;20420;-78
2021/05/03 04:59:40;;;;;;;18.73;9.65;;;4.00;99.90;;;;;;5032731;28;20083;-79
2021/05/03 05:02:06;;;;;;;20.23;9.18;;;4.10;99.90;;;;;;5029695;28;20029;-79
2021/05/03 05:04:31;;;;;;;18.50;9.50;;;4.10;99.90;;;;;;5026188;28;20399;-79
2021/05/03 05:07:00;;;;;;;17.85;9.55;;;4.30;99.90;;;;;;5049378;28;20037;-79
2021/05/03 05:09:26;;;;;;;21.83;9.18;;;;;;;;;;5026395;28;20407;-79
2021/05/03 05:11:51;;;;;;;12.82;8.77;;;4.40;99.90;;;;;;5022253;28;20870;-77
2021/05/03 05:14:17;;;;;;;15.85;8.70;;;4.40;99.90;;;;;;5024298;28;20803;-78
2021/05/03 05:16:44;;;;;;;18.95;9.13;;;4.50;99.90;;;;;;5037089;28;20029;-78
2021/05/03 05:19:10;;;;;;;20.92;10.02;;;4.60;99.90;;;;;;5043609;28;20545;-79
2021/05/03 05:21:36;;;;;;;15.30;9.15;;;7.00;99.90;;;;;;5045528;28;20538;-78
2021/05/03 05:24:02;;;;;;;16.60;9.65;;;4.80;99.90;;;;;;5038549;28;20033;-77
2021/05/03 05:26:28;;;;;;;19.77;10.55;;;4.80;99.90;;;;;;5044419;28;20508;-78
2021/05/03 05:28:53;;;;;;;18.50;9.88;;;4.60;99.90;;;;;;5031103;28;20060;-78
2021/05/03 05:31:19;;;;;;;17.00;10.23;;;4.50;99.90;;;;;;5029927;28;20036;-79
2021/05/03 05:33:45;;;;;;;16.52;9.88;;;5.40;99.90;;;;;;5046732;28;20029;-79
2021/05/03 05:36:10;;;;;;;16.95;8.75;;;4.70;99.90;;;;;;5040322;28;20106;-75
2021/05/03 05:38:38;;;;;;;16.40;9.13;;;5.10;99.90;;;;;;5034291;28;20420;-78
2021/05/03 05:41:04;;;;;;;14.52;8.48;;;5.80;99.90;;;;;;5035214;28;20086;-80
2021/05/03 05:43:29;;;;;;;16.40;9.32;;;6.40;99.30;;;;;;5054051;28;20021;-78
2021/05/03 05:45:55;;;;;;;19.17;9.35;;;6.90;97.90;;;;;;5037937;28;20851;-77
2021/05/03 05:48:21;;;;;;;16.73;9.02;;;7.20;97.30;;;;;;5040616;28;20044;-81
2021/05/03 05:50:47;;;;;;;14.38;8.73;;;7.30;96.70;;;;;;5041302;28;20047;-80
2021/05/03 05:53:13;;;;;;;20.77;9.38;;;;;;;;;;5058664;28;20064;-81
2021/05/03 05:55:40;;;;;;;15.45;9.35;;;7.30;96.20;;;;;;5033248;28;20033;-82
2021/05/03 05:58:06;;;;;;;15.15;9.35;;;7.20;96.10;;;;;;5056939;28;20023;-80
2021/05/03 06:00:32;;;;;;;21.15;9.75;;;6.60;97.50;;;;;;5050042;28;20033;-79
2021/05/03 06:02:57;;;;;;;14.65;9.23;;;6.50;98.20;;;;;;5048491;28;20419;-83
2021/05/03 06:05:24;;;;;;;16.88;9.15;;;6.40;98.10;;;;;;5031260;28;20033;-81
2021/05/03 06:07:50;;;;;;;22.30;9.95;;;;;;;;;;5050342;28;20044;-79
2021/05/03 06:10:16;;;;;;;15.38;9.63;;;;;;;;;;5030118;28;20045;-80
2021/05/03 06:12:42;;;;;;;26.67;11.40;;;6.50;98.70;;;;;;5041109;28;20032;-80
2021/05/03 06:15:08;;;;;;;18.58;10.07;;;6.60;98.90;;;;;;5033530;28;20025;-80
2021/05/03 06:17:34;;;;;;;20.45;10.65;;;6.70;98.60;;;;;;5036841;28;20060;-81
2021/05/03 06:19:59;;;;;;;25.42;11.52;;;6.40;99.00;;;;;;5031015;28;20029;-79
2021/05/03 06:22:28;;;;;;;20.55;10.80;;;6.50;99.20;;;;;;5034050;28;20028;-82
2021/05/03 06:24:53;;;;;;;21.75;10.18;;;6.60;99.40;;;;;;5051286;28;20025;-79
2021/05/03 06:27:19;;;;;;;22.05;10.02;;;6.80;98.70;;;;;;5035434;28;20040;-80
2021/05/03 06:29:44;;;;;;;14.73;9.48;;;7.10;98.20;;;;;;5043607;28;20037;-82
2021/05/03 06:32:10;;;;;;;19.35;9.82;;;7.30;97.40;;;;;;5029601;28;20041;-77
2021/05/03 06:34:36;;;;;;;17.00;9.73;;;;;;;;;;5044723;28;20036;-81
2021/05/03 06:37:02;;;;;;;15.32;10.07;;;7.40;97.50;;;;;;5046317;28;20045;-83
2021/05/03 06:39:27;;;;;;;19.38;9.32;;;7.50;97.30;;;;;;5033011;28;20040;-80
2021/05/03 06:41:53;;;;;;;15.55;9.40;;;7.50;96.90;;;;;;5029015;28;20029;-82
2021/05/03 06:44:20;;;;;;;15.70;9.90;;;7.50;97.10;;;;;;5030852;28;20028;-82
2021/05/03 06:46:47;;;;;;;18.52;10.07;;;;;;;;;;5005602;28;20303;-79
2021/05/03 06:49:13;;;;;;;17.65;9.88;;;;;;;;;;5038704;28;21108;-79
2021/05/03 06:51:38;;;;;;;14.75;9.80;;;7.50;97.50;;;;;;5025639;28;20029;-80
2021/05/03 06:54:04;;;;;;;19.48;9.88;;;;;;;;;;5028343;28;20308;-77
2021/05/03 06:56:30;;;;;;;14.98;9.88;;;;;;;;;;5029073;28;20029;-80
2021/05/03 06:58:56;;;;;;;20.05;10.73;;;8.00;96.70;;;;;;5043123;28;20032;-81
2021/05/03 07:01:22;;;;;;;20.13;10.05;;;;;;;;;;5032347;28;20033;-80
2021/05/03 07:03:49;;;;;;;19.38;9.77;;;8.30;96.10;;;;;;5027495;28;20061;-80
2021/05/03 07:06:15;;;;;;;18.05;9.25;;;;;;;;;;5025001;28;20041;-80
2021/05/03 07:08:42;;;;;;;13.20;9.15;;;8.60;95.50;;;;;;5029433;28;20119;-79
2021/05/03 07:11:17;;;;;;;14.48;9.18;;;;;;;;;;5057222;28;20279;-82
2021/05/03 07:13:43;;;;;;;15.55;9.82;;;8.60;95.30;;;;;;5028325;28;583963;-80
2021/05/03 07:16:09;;;;;;;12.70;9.02;;;9.90;95.60;;;;;;5048351;28;20052;-80
2021/05/03 07:18:35;;;;;;;13.63;8.35;;;;;;;;;;5045803;28;20033;-81
2021/05/03 07:21:00;;;;;;;13.73;9.38;;;9.10;94.50;;;;;;5056199;28;20025;-79
2021/05/03 07:23:26;;;;;;;13.23;9.65;;;9.20;93.60;;;;;;5041183;28;20096;-81
2021/05/03 07:25:52;;;;;;;14.70;9.75;;;9.30;93.80;;;;;;5036115;28;20033;-80
2021/05/03 07:28:18;;;;;;;15.05;8.68;;;10.70;94.30;;;;;;5031511;28;20029;-77
2021/05/03 07:30:43;;;;;;;14.27;8.88;;;9.50;93.50;;;;;;5041524;28;20029;-79
2021/05/03 07:33:09;;;;;;;17.27;9.52;;;9.40;93.30;;;;;;5058673;28;20071;-81
2021/05/03 07:35:35;;;;;;;17.52;9.68;;;;;;;;;;5046448;28;20025;-79
2021/05/03 07:38:01;;;;;;;19.63;10.52;;;9.50;93.20;;;;;;5052484;28;20041;-82
2021/05/03 07:40:27;;;;;;;17.30;9.88;;;9.60;93.10;;;;;;5056212;28;20112;-79
2021/05/03 07:42:52;;;;;;;15.57;10.43;;;9.60;93.60;;;;;;5034504;28;20049;-80
2021/05/03 07:45:18;;;;;;;14.80;9.35;;;9.80;92.90;;;;;;5026897;28;20028;-82
2021/05/03 07:47:45;;;;;;;15.05;9.30;;;10.30;92.50;;;;;;5035950;28;20033;-81
2021/05/03 07:50:11;;;;;;;14.60;9.00;;;;;;;;;;5052708;28;20029;-79
2021/05/03 07:52:37;;;;;;;12.43;8.40;;;;;;;;;;5053268;28;19913;-79
2021/05/03 07:55:04;;;;;;;11.57;8.20;;;10.60;90.70;;;;;;5035749;28;20031;-78
2021/05/03 07:57:30;;;;;;;12.48;8.30;;;10.80;90.70;;;;;;5051283;28;20040;-80
2021/05/03 07:59:56;;;;;;;11.85;7.95;;;10.80;88.50;;;;;;5035393;28;20384;-81
2021/05/03 08:02:22;;;;;;;9.52;7.80;;;;;;;;;;5044074;28;20036;-81
2021/05/03 08:04:48;;;;;;;11.73;7.50;;;11.30;83.90;;;;;;5040881;28;20037;-81
2021/05/03 08:07:13;;;;;;;13.88;6.80;;;11.50;82.50;;;;;;5047271;28;20025;-79
2021/05/03 08:09:39;;;;;;;9.82;6.60;;;11.60;79.10;;;;;;5052920;28;20035;-80
2021/05/03 08:12:08;;;;;;;8.55;6.80;;;11.80;77.90;;;;;;5037144;28;20021;-82
2021/05/03 08:14:34;;;;;;;8.63;6.40;;;12.00;77.40;;;;;;5036493;28;20130;-79
2021/05/03 08:17:04;;;;;;;6.88;5.70;;;12.10;75.60;;;;;;5034051;28;20053;-81
2021/05/03 08:19:30;;;;;;;11.70;5.90;;;12.10;74.80;;;;;;5040086;28;20020;-80
2021/05/03 08:21:58;;;;;;;9.23;5.45;;;12.30;71.80;;;;;;5051028;28;21335;-81
2021/05/03 08:24:24;;;;;;;7.32;5.68;;;13.00;72.50;;;;;;5052664;28;20024;-79
2021/05/03 08:26:49;;;;;;;9.82;6.03;;;12.30;71.20;;;;;;5034568;28;20563;-78
2021/05/03 08:29:15;;;;;;;8.48;5.80;;;13.30;72.30;;;;;;5030779;28;20035;-80
2021/05/03 08:31:41;;;;;;;8.88;5.65;;;12.10;70.50;;;;;;5031999;28;20025;-76
2021/05/03 08:34:09;;;;;;;9.65;6.03;;;14.80;72.40;;;;;;5031484;28;20033;-78
2021/05/03 08:36:35;;;;;;;12.00;6.32;;;12.10;70.30;;;;;;5047926;28;20025;-78
2021/05/03 08:39:03;;;;;;;10.95;5.75;;;11.90;70.40;;;;;;5047623;28;20060;-78
2021/05/03 08:41:28;;;;;;;7.22;5.57;;;11.80;70.30;;;;;;5047988;28;20056;-78
2021/05/03 08:43:54;;;;;;;8.00;5.53;;;11.90;70.00;;;;;;5025839;28;20033;-79
2021/05/03 08:46:27;;;;;;;8.75;4.95;;;12.10;69.40;;;;;;5032844;28;20037;-76
2021/05/03 08:49:02;;;;;;;8.00;4.65;;;12.20;67.60;;;;;;5048274;28;20545;-78
2021/05/03 08:56:45;;;;;;;10.85;5.20;;;12.50;64.70;;;;;;5051441;28;20097;-79
2021/05/03 08:59:13;;;;;;;7.20;4.72;;;12.80;65.20;;;;;;5033329;28;20061;-75
2021/05/03 09:01:48;;;;;;;9.05;5.00;;;13.20;62.60;;;;;;5032118;28;20028;-82
2021/05/03 09:04:15;;;;;;;8.45;4.93;;;13.40;61.50;;;;;;5030268;28;20048;-80
2021/05/03 09:07:12;;;;;;;8.38;4.60;;;13.80;61.00;;;;;;5029093;28;20483;-79
2021/05/03 09:09:47;;;;;;;6.78;4.35;;;14.20;57.90;;;;;;5050512;28;20093;-79
2021/05/03 09:12:15;;;;;;;9.35;5.68;;;14.20;57.80;;;;;;5019673;28;20033;-78
2021/05/03 09:14:49;;;;;;;8.60;4.88;;;14.10;59.00;;;;;;5049538;28;20043;-80
2021/05/03 09:17:29;;;;;;;6.45;4.75;;;13.60;59.70;;;;;;5047207;28;20033;-79
2021/05/03 09:20:00;;;;;;;8.60;5.70;;;13.30;59.80;;;;;;5031428;28;20021;-80
2021/05/03 09:22:43;;;;;;;7.70;5.20;;;13.00;61.50;;;;;;5032106;28;20312;-78
2021/05/03 09:25:37;;;;;;;6.53;4.43;;;14.90;62.40;;;;;;5030774;28;20446;-78
2021/05/03 09:28:12;;;;;;;9.93;4.95;;;12.70;62.50;;;;;;5026408;28;20025;-78
2021/05/03 09:30:49;;;;;;;6.63;4.63;;;13.00;60.20;;;;;;5029712;28;20037;-79
2021/05/03 09:33:21;;;;;;;6.72;4.50;;;13.00;60.50;;;;;;5040239;28;20041;-80
2021/05/03 09:35:48;;;;;;;8.10;5.10;;;13.10;59.80;;;;;;5047393;28;20033;-79
2021/05/03 09:38:36;;;;;;;7.75;4.65;;;14.30;60.40;;;;;;5057444;28;20017;-79
2021/05/03 09:41:21;;;;;;;6.82;4.30;;;13.20;59.90;;;;;;5040978;28;20076;-81
2021/05/03 09:43:53;;;;;;;6.20;4.47;;;13.60;58.80;;;;;;5059539;28;20115;-77
2021/05/03 09:46:35;;;;;;;8.80;5.05;;;14.00;57.90;;;;;;5043782;28;20111;-80
2021/05/03 09:49:04;;;;;;;6.60;5.10;;;14.10;56.70;;;;;;5045112;28;20029;-81
2021/05/03 09:51:47;;;;;;;6.70;4.77;;;14.00;56.50;;;;;;5020800;28;20079;-80
2021/05/03 09:54:28;;;;;;;11.00;8.07;;;14.00;57.00;;;;;;5037594;28;20283;-80
2021/05/03 09:57:03;;;;;;;7.47;4.45;;;14.10;56.70;;;;;;5059316;28;20045;-79
2021/05/03 09:59:33;;;;;;;8.00;4.43;;;14.20;56.20;;;;;;5036327;28;20021;-79
2021/05/03 10:02:07;;;;;;;6.23;4.43;;;14.50;54.30;;;;;;5053332;28;20033;-80
2021/05/03 10:04:34;;;;;;;6.90;4.50;;;;;;;;;;5065612;28;20123;-81
2021/05/03 10:07:00;;;;;;;5.50;4.38;;;15.20;52.40;;;;;;5045546;28;20095;-82
2021/05/03 10:09:28;;;;;;;5.60;3.72;;;16.60;53.50;;;;;;5037156;28;20565;-80
2021/05/03 10:11:54;;;;;;;5.93;3.95;;;15.10;52.20;;;;;;5061354;28;20065;-79
2021/05/03 10:14:20;;;;;;;5.32;4.05;;;15.10;52.60;;;;;;5061017;28;20368;-81
2021/05/03 10:16:48;;;;;;;6.68;4.00;;;14.60;52.40;;;;;;5067392;28;20024;-79
2021/05/03 10:19:18;;;;;;;8.88;4.85;;;14.60;52.80;;;;;;5067830;28;20051;-80
2021/05/03 10:21:44;;;;;;;7.25;4.95;;;14.00;53.10;;;;;;5052548;28;20024;-79
2021/05/03 10:24:13;;;;;;;7.30;4.40;;;14.00;53.50;;;;;;5044409;28;20025;-81
2021/05/03 10:26:40;;;;;;;5.70;4.20;;;13.70;55.10;;;;;;5048210;28;20029;-81
2021/05/03 10:29:06;;;;;;;8.35;4.45;;;13.70;55.80;;;;;;5051647;28;20480;-79
2021/05/03 10:32:01;;;;;;;7.80;4.95;;;14.00;55.60;;;;;;5059484;28;20032;-78
2021/05/03 10:34:51;;;;;;;7.70;4.55;;;14.10;54.70;;;;;;5062223;28;20029;-78
2021/05/03 10:37:43;;;;;;;5.97;4.30;;;14.10;54.80;;;;;;5063137;28;20116;-77
2021/05/03 10:40:21;;;;;;;6.03;4.40;;;13.60;54.90;;;;;;5044293;28;20037;-80
2021/05/03 10:43:02;;;;;;;7.03;4.28;;;13.60;55.20;;;;;;5060701;28;20075;-80
2021/05/03 10:48:59;;;;;;;7.90;5.03;;;13.40;56.70;;;;;;5064056;28;20067;-80
2021/05/03 10:51:50;;;;;;;7.33;4.70;;;13.60;56.40;;;;;;5020744;28;20029;-81
2021/05/03 10:54:38;;;;;;;6.80;4.20;;;13.90;55.80;;;;;;5060538;28;20061;-77
2021/05/03 10:57:08;;;;;;;5.45;3.80;;;14.10;53.80;;;;;;5059862;28;20041;-79
2021/05/03 10:59:49;;;;;;;8.32;4.07;;;14.10;53.90;;;;;;5047616;28;20491;-78
2021/05/03 11:02:20;;;;;;;7.22;4.07;;;14.10;53.50;;;;;;5048988;28;20044;-78
2021/05/03 11:05:22;;;;;;;6.55;3.83;;;14.10;53.40;;;;;;5046243;28;20048;-80
2021/05/03 11:08:03;;;;;;;6.55;4.40;;;14.10;52.80;;;;;;5019578;28;20060;-79
2021/05/03 11:10:54;;;;;;;5.85;4.05;;;14.40;52.60;;;;;;5040761;28;20055;-79
2021/05/03 11:13:39;;;;;;;5.55;4.20;;;14.40;52.70;;;;;;5064194;28;20084;-79
2021/05/03 11:16:27;;;;;;;7.57;4.72;;;14.60;52.60;;;;;;5059292;28;20027;-80
2021/05/03 11:18:55;;;;;;;7.40;4.20;;;14.70;52.50;;;;;;5058850;28;20021;-81
2021/05/03 11:21:45;;;;;;;7.15;4.43;;;14.90;52.70;;;;;;5062693;28;20021;-79
2021/05/03 11:24:32;;;;;;;6.22;3.92;;;14.40;52.60;;;;;;5063594;28;20025;-80
2021/05/03 11:32:16;;;;;;;4.80;3.85;;;14.40;52.30;;;;;;5037261;28;20044;-81
2021/05/03 11:35:11;;;;;;;5.70;3.75;;;14.60;52.80;;;;;;5069134;28;20017;-80
2021/05/03 11:38:09;;;;;;;6.25;4.00;;;15.00;50.10;;;;;;5056708;28;20108;-80
2021/05/03 11:46:08;;;;;;;4.95;3.40;;;14.80;49.80;;;;;;5055819;28;20049;-80
2021/05/03 11:48:34;;;;;;;5.55;3.63;;;15.40;50.90;;;;;;5055884;28;20040;-80
2021/05/03 11:51:08;;;;;;;4.68;3.70;;;14.40;50.60;;;;;;5042175;28;20027;-79
2021/05/03 11:53:44;;;;;;;11.25;8.07;;;14.40;49.70;;;;;;5066496;28;20051;-81
2021/05/03 11:56:29;;;;;;;5.90;3.70;;;15.50;51.20;;;;;;5056662;28;20021;-79
2021/05/03 11:58:59;;;;;;;7.40;3.90;;;14.40;50.60;;;;;;5050516;28;20029;-80
2021/05/03 12:01:26;;;;;;;;;;;14.30;51.20;;;;;;5040763;28;20021;-78
2021/05/03 12:03:59;;;;;;;6.53;3.70;;;14.30;50.90;;;;;;5037191;28;19909;-81
2021/05/03 12:06:40;;;;;;;6.47;3.47;;;14.20;50.30;;;;;;5059398;28;20025;-81
2021/05/03 12:09:13;;;;;;;6.80;4.35;;;14.10;50.70;;;;;;5037596;28;20029;-78
2021/05/03 12:11:52;;;;;;;6.40;3.75;;;14.00;51.10;;;;;;5058825;28;20020;-79
2021/05/03 12:14:18;;;;;;;5.53;3.75;;;14.40;50.90;;;;;;5042929;28;20079;-79
2021/05/03 12:16:43;;;;;;;6.15;3.85;;;14.70;49.70;;;;;;5043753;28;20032;-80
2021/05/03 12:19:18;;;;;;;6.32;3.92;;;15.00;49.60;;;;;;5056943;28;20119;-80
2021/05/03 12:21:44;;;;;;;6.90;4.07;;;15.20;48.10;;;;;;5042591;28;20033;-77
2021/05/03 12:24:14;;;;;;;6.13;4.03;;;15.20;48.50;;;;;;5036075;28;20017;-80
2021/05/03 12:26:57;;;;;;;7.17;3.87;;;15.40;48.80;;;;;;5057855;28;20029;-78
2021/05/03 12:29:24;;;;;;;8.07;4.22;;;15.30;47.80;;;;;;5057528;28;20033;-79
2021/05/03 12:31:50;;;;;;;5.95;4.03;;;15.10;47.90;;;;;;5044993;28;20029;-80
2021/05/03 12:34:22;;;;;;;6.18;3.88;;;15.10;48.40;;;;;;5044604;28;20036;-78
2021/05/03 12:37:07;;;;;;;9.52;4.20;;;15.10;49.30;;;;;;5044044;28;20048;-78
2021/05/03 12:39:35;;;;;;;6.18;4.00;;;15.00;49.30;;;;;;5046232;28;20025;-79
2021/05/03 12:42:15;;;;;;;4.72;3.60;;;15.10;49.20;;;;;;5049102;28;20116;-78
2021/05/03 12:44:57;;;;;;;5.93;3.22;;;14.90;48.80;;;;;;5041719;28;20112;-77
2021/05/03 12:47:49;;;;;;;4.68;3.70;;;14.90;49.20;;;;;;5036100;28;20148;-79
2021/05/03 12:50:31;;;;;;;10.25;3.90;;;15.10;47.80;;;;;;5061342;28;20040;-80
2021/05/03 12:55:58;;;;;;;4.35;3.38;;;15.00;47.60;;;;;;5054460;28;20106;-82
2021/05/03 13:03:41;;;;;;;7.07;4.75;;;15.10;47.60;;;;;;5062252;28;20124;-81
2021/05/03 13:09:27;;;;;;;5.45;3.63;;;15.10;48.10;;;;;;5061147;28;20290;-79
2021/05/03 13:12:26;;;;;;;5.80;3.90;;;15.40;47.80;;;;;;5041310;28;21098;-80
2021/05/03 13:29:08;;;;;;;5.25;3.70;;;16.10;45.90;;;;;;5060034;28;20031;-79
2021/05/03 13:31:35;;;;;;;4.95;3.38;;;16.30;46.10;;;;;;5059139;28;20036;-81
2021/05/03 13:34:04;;;;;;;6.43;3.63;;;16.30;46.40;;;;;;5058519;28;20430;-80
2021/05/03 13:36:29;;;;;;;5.03;3.35;;;16.10;45.50;;;;;;5041661;28;20103;-79
2021/05/03 13:38:56;;;;;;;6.85;3.50;;;16.70;46.10;;;;;;5066126;28;20057;-79
2021/05/03 13:41:22;;;;;;;4.63;3.30;;;15.90;45.70;;;;;;5044632;28;20029;-80
2021/05/03 13:43:48;;;;;;;4.65;3.25;;;16.20;46.30;;;;;;5056077;28;20124;-80
2021/05/03 13:46:14;;;;;;;4.38;2.90;;;15.90;45.60;;;;;;5066393;28;20040;-80
2021/05/03 13:48:40;;;;;;;5.85;3.22;;;16.10;45.50;;;;;;5042680;28;20024;-78
2021/05/03 13:51:07;;;;;;;7.93;6.18;;;16.40;45.10;;;;;;5047498;28;20056;-81
2021/05/03 13:53:35;;;;;;;3.40;2.78;;;16.20;45.00;;;;;;5041083;28;20406;-81
2021/05/03 13:56:01;;;;;;;4.45;2.67;;;16.10;44.60;;;;;;5055059;28;20097;-79
2021/05/03 13:58:27;;;;;;;4.07;2.92;;;16.10;44.60;;;;;;5041261;28;20024;-79
2021/05/03 14:00:53;;;;;;;4.60;2.97;;;;;;;;;;5038535;28;20036;-80
2021/05/03 14:03:19;;;;;;;4.63;3.03;;;15.90;45.00;;;;;;5043166;28;20071;-79
2021/05/03 14:05:45;;;;;;;4.35;3.42;;;15.80;45.30;;;;;;5050609;28;20125;-78
2021/05/03 14:08:11;;;;;;;5.10;3.20;;;15.70;45.60;;;;;;5054968;28;20035;-80